createdAt,value
2023-04-27T00:00:29.084Z,16.9538
2023-04-27T00:01:32.961Z,17.1098
2023-04-27T00:02:36.943Z,17.2582
2023-04-27T00:03:41.336Z,17.1619
2023-04-27T00:04:45.464Z,16.8661
2023-04-27T00:05:49.538Z,16.8250
2023-04-27T00:06:53.455Z,16.9304
2023-04-27T00:07:57.365Z,17.0846
2023-04-27T00:09:01.292Z,17.2224
2023-04-27T00:10:05.162Z,17.1592
2023-04-27T00:11:09.071Z,16.8430
2023-04-27T00:12:12.953Z,16.7945
2023-04-27T00:13:17.135Z,16.9246
2023-04-27T00:14:21.031Z,17.0855
2023-04-27T00:15:25.265Z,17.2413
2023-04-27T00:16:29.180Z,17.2647
2023-04-27T00:17:33.093Z,16.9436
2023-04-27T00:18:36.950Z,16.8254
2023-04-27T00:19:40.927Z,16.9006
2023-04-27T00:20:44.794Z,17.0128
2023-04-27T00:21:48.662Z,17.1534
2023-04-27T00:22:52.574Z,17.2093
2023-04-27T00:23:56.455Z,16.9645
2023-04-27T00:25:00.352Z,16.8828
2023-04-27T00:26:04.291Z,16.9696
2023-04-27T00:27:08.155Z,17.0889
2023-04-27T00:28:12.254Z,17.2322
2023-04-27T00:29:16.159Z,17.2829
2023-04-27T00:30:20.282Z,16.9709
2023-04-27T00:31:24.226Z,16.7914
2023-04-27T00:32:28.183Z,16.8670
2023-04-27T00:33:32.070Z,16.9885
2023-04-27T00:34:35.955Z,17.1334
2023-04-27T00:35:39.869Z,17.2449
2023-04-27T00:36:43.766Z,17.0250
2023-04-27T00:37:47.666Z,16.8492
2023-04-27T00:38:51.582Z,16.9124
2023-04-27T00:39:55.694Z,17.0399
2023-04-27T00:40:59.608Z,17.1966
2023-04-27T00:42:03.499Z,17.2972
2023-04-27T00:43:07.404Z,17.0862
2023-04-27T00:44:11.287Z,16.8935
2023-04-27T00:45:15.232Z,16.9164
2023-04-27T00:46:19.313Z,16.9979
2023-04-27T00:47:23.215Z,17.1298
2023-04-27T00:48:27.078Z,17.2451
2023-04-27T00:49:30.983Z,17.0166
2023-04-27T00:50:34.871Z,16.8203
2023-04-27T00:51:38.799Z,16.9006
2023-04-27T00:52:42.679Z,17.0644
2023-04-27T00:53:46.581Z,17.2157
2023-04-27T00:54:50.702Z,17.3403
2023-04-27T00:55:54.593Z,17.1601
2023-04-27T00:56:58.487Z,16.8049
2023-04-27T00:58:02.423Z,16.7520
2023-04-27T00:59:06.303Z,16.8930
2023-04-27T01:00:10.204Z,17.0566
2023-04-27T01:01:14.093Z,17.2146
2023-04-27T01:02:18.036Z,17.1839
2023-04-27T01:03:22.054Z,16.8995
2023-04-27T01:04:26.120Z,16.8272
2023-04-27T01:05:31.995Z,16.9407
2023-04-27T01:06:31.150Z,17.0866
2023-04-27T01:07:35.068Z,17.2219
2023-04-27T01:08:38.947Z,17.2662
2023-04-27T01:09:42.954Z,16.9373
2023-04-27T01:10:46.847Z,16.7549
2023-04-27T01:11:50.845Z,16.8425
2023-04-27T01:12:54.745Z,17.0112
2023-04-27T01:13:58.632Z,17.1663
2023-04-27T01:15:02.547Z,17.2883
2023-04-27T01:16:06.432Z,17.0444
2023-04-27T01:17:10.387Z,16.7684
2023-04-27T01:18:14.330Z,16.7983
2023-04-27T01:19:18.220Z,16.9418
2023-04-27T01:20:22.109Z,17.0951
2023-04-27T01:21:26.017Z,17.2360
2023-04-27T01:22:29.992Z,17.1421
2023-04-27T01:23:33.854Z,16.8523
2023-04-27T01:24:37.745Z,16.8396
2023-04-27T01:25:41.669Z,16.9827
2023-04-27T01:26:45.541Z,17.1336
2023-04-27T01:27:49.687Z,17.2762
2023-04-27T01:28:53.640Z,17.2157
2023-04-27T01:29:57.520Z,16.8946
2023-04-27T01:31:01.426Z,16.7900
2023-04-27T01:32:05.312Z,16.8875
2023-04-27T01:33:09.269Z,17.0301
2023-04-27T01:34:13.175Z,17.1834
2023-04-27T01:35:17.097Z,17.2119
2023-04-27T01:36:21.182Z,16.9255
2023-04-27T01:37:25.404Z,16.8354
2023-04-27T01:38:29.286Z,16.9315
2023-04-27T01:39:33.194Z,17.0846
2023-04-27T01:40:37.115Z,17.2380
2023-04-27T01:41:41.000Z,17.2965
2023-04-27T01:42:44.890Z,16.9874
2023-04-27T01:43:48.817Z,16.8163
2023-04-27T01:44:52.695Z,16.8902
2023-04-27T01:45:56.629Z,17.0221
2023-04-27T01:47:00.496Z,17.1674
2023-04-27T01:48:04.719Z,17.2698
2023-04-27T01:49:08.677Z,17.0234
2023-04-27T01:50:12.623Z,16.7833
2023-04-27T01:51:16.494Z,16.8181
2023-04-27T01:52:20.385Z,16.9651
2023-04-27T01:53:24.289Z,17.1160
2023-04-27T01:54:28.785Z,17.2500
2023-04-27T01:55:32.728Z,17.1044
2023-04-27T01:56:36.614Z,16.8477
2023-04-27T01:57:40.540Z,16.8657
2023-04-27T01:58:44.409Z,16.9832
2023-04-27T01:59:48.318Z,17.1149
2023-04-27T02:00:52.246Z,17.2504
2023-04-27T02:01:56.210Z,17.1332
2023-04-27T02:03:00.203Z,16.8532
2023-04-27T02:04:04.445Z,16.8445
2023-04-27T02:05:08.447Z,16.9705
2023-04-27T02:06:12.522Z,17.1071
2023-04-27T02:07:16.392Z,17.2547
2023-04-27T02:08:20.303Z,17.1866
2023-04-27T02:09:24.179Z,16.8343
2023-04-27T02:10:28.113Z,16.7188
2023-04-27T02:11:32.046Z,16.8559
2023-04-27T02:12:36.066Z,17.0430
2023-04-27T02:13:39.965Z,17.2057
2023-04-27T02:14:43.857Z,17.2807
2023-04-27T02:15:47.772Z,17.0079
2023-04-27T02:16:51.661Z,16.8552
2023-04-27T02:17:55.659Z,16.9231
2023-04-27T02:18:59.623Z,17.0562
2023-04-27T02:20:03.506Z,17.1972
2023-04-27T02:21:07.393Z,17.2871
2023-04-27T02:22:11.285Z,17.0128
2023-04-27T02:23:15.208Z,16.8189
2023-04-27T02:24:19.076Z,16.8708
2023-04-27T02:25:23.005Z,16.9927
2023-04-27T02:26:26.885Z,17.1312
2023-04-27T02:27:30.800Z,17.2442
2023-04-27T02:28:35.100Z,17.0324
2023-04-27T02:29:39.507Z,16.7324
2023-04-27T02:30:43.925Z,16.7506
2023-04-27T02:31:47.911Z,16.9202
2023-04-27T02:32:51.852Z,17.0973
2023-04-27T02:33:55.757Z,17.2515
2023-04-27T02:34:59.639Z,17.1652
2023-04-27T02:36:03.538Z,16.8937
2023-04-27T02:37:07.416Z,16.8485
2023-04-27T02:38:11.360Z,16.9311
2023-04-27T02:39:15.529Z,17.0566
2023-04-27T02:40:19.646Z,17.1948
2023-04-27T02:41:23.524Z,17.1238
2023-04-27T02:42:27.959Z,16.8594
2023-04-27T02:43:31.856Z,16.8583
2023-04-27T02:44:35.800Z,16.9698
2023-04-27T02:45:39.719Z,17.1127
2023-04-27T02:46:43.613Z,17.2567
2023-04-27T02:47:47.632Z,17.1952
2023-04-27T02:48:51.498Z,16.8826
2023-04-27T02:49:55.412Z,16.8390
2023-04-27T02:50:59.331Z,16.9451
2023-04-27T02:52:03.229Z,17.0773
2023-04-27T02:53:07.098Z,17.2259
2023-04-27T02:54:11.016Z,17.2202
2023-04-27T02:55:14.899Z,16.9206
2023-04-27T02:56:19.021Z,16.8276
2023-04-27T02:57:22.964Z,16.9184
2023-04-27T02:58:26.842Z,17.0550
2023-04-27T02:59:30.940Z,17.1981
2023-04-27T03:00:34.896Z,17.2506
2023-04-27T03:01:39.193Z,16.9785
2023-04-27T03:02:43.245Z,16.8459
2023-04-27T03:03:47.263Z,16.9229
2023-04-27T03:04:51.385Z,17.0573
2023-04-27T03:05:55.346Z,17.2088
2023-04-27T03:06:59.251Z,17.2569
2023-04-27T03:08:03.125Z,16.9569
2023-04-27T03:09:07.046Z,16.7898
2023-04-27T03:10:10.939Z,16.8635
2023-04-27T03:11:14.852Z,17.0192
2023-04-27T03:12:18.974Z,17.1788
2023-04-27T03:13:22.879Z,17.2765
2023-04-27T03:14:27.039Z,17.0375
2023-04-27T03:15:30.965Z,16.7865
2023-04-27T03:16:34.855Z,16.8201
2023-04-27T03:17:38.793Z,16.9516
2023-04-27T03:18:42.669Z,17.0820
2023-04-27T03:19:46.573Z,17.2206
2023-04-27T03:20:50.462Z,17.0940
2023-04-27T03:21:54.396Z,16.7931
2023-04-27T03:22:58.268Z,16.7963
2023-04-27T03:24:02.182Z,16.9324
2023-04-27T03:25:06.070Z,17.0757
2023-04-27T03:26:09.977Z,17.2226
2023-04-27T03:27:13.891Z,17.1868
2023-04-27T03:28:17.791Z,16.8559
2023-04-27T03:29:21.678Z,16.7702
2023-04-27T03:30:25.582Z,16.8955
2023-04-27T03:31:29.487Z,17.0557
2023-04-27T03:32:33.420Z,17.2108
2023-04-27T03:33:37.341Z,17.2524
2023-04-27T03:34:41.229Z,16.9478
2023-04-27T03:35:45.113Z,16.7471
2023-04-27T03:36:49.029Z,16.8526
2023-04-27T03:37:52.931Z,17.0094
2023-04-27T03:38:56.809Z,17.1603
2023-04-27T03:40:00.778Z,17.2731
2023-04-27T03:41:04.650Z,17.0295
2023-04-27T03:42:08.564Z,16.7371
2023-04-27T03:43:12.455Z,16.7591
2023-04-27T03:44:16.369Z,16.9115
2023-04-27T03:45:20.245Z,17.0550
2023-04-27T03:46:24.234Z,17.1988
2023-04-27T03:47:28.172Z,17.1051
2023-04-27T03:48:32.064Z,16.8759
2023-04-27T03:49:35.918Z,16.8888
2023-04-27T03:50:39.823Z,16.9999
2023-04-27T03:51:43.714Z,17.1287
2023-04-27T03:52:47.669Z,17.2733
2023-04-27T03:53:51.548Z,17.1456
2023-04-27T03:54:55.452Z,16.8372
2023-04-27T03:55:59.342Z,16.8236
2023-04-27T03:57:03.248Z,16.9291
2023-04-27T03:58:07.299Z,17.0653
2023-04-27T03:59:11.406Z,17.2079
2023-04-27T04:00:15.325Z,17.1501
2023-04-27T04:01:19.213Z,16.8650
2023-04-27T04:02:23.174Z,16.8361
2023-04-27T04:03:27.385Z,16.9576
2023-04-27T04:04:31.797Z,17.1165
2023-04-27T04:05:35.840Z,17.2682
2023-04-27T04:06:39.750Z,17.2420
2023-04-27T04:07:43.647Z,16.8991
2023-04-27T04:08:47.555Z,16.8074
2023-04-27T04:09:51.431Z,16.8913
2023-04-27T04:10:55.356Z,17.0268
2023-04-27T04:11:59.238Z,17.1565
2023-04-27T04:13:03.133Z,17.2061
2023-04-27T04:14:07.049Z,16.9792
2023-04-27T04:15:10.943Z,16.9109
2023-04-27T04:16:14.887Z,17.0097
2023-04-27T04:17:18.797Z,17.1387
2023-04-27T04:18:22.673Z,17.2847
2023-04-27T04:19:26.881Z,17.2845
2023-04-27T04:20:30.745Z,16.9289
2023-04-27T04:21:34.669Z,16.7346
2023-04-27T04:22:38.589Z,16.8087
2023-04-27T04:23:42.492Z,16.9669
2023-04-27T04:24:46.399Z,17.1125
2023-04-27T04:25:50.344Z,17.2273
2023-04-27T04:26:54.197Z,17.0246
2023-04-27T04:27:58.092Z,16.7856
2023-04-27T04:29:02.298Z,16.8599
2023-04-27T04:30:06.355Z,16.9954
2023-04-27T04:31:10.335Z,17.1416
2023-04-27T04:32:14.229Z,17.2769
2023-04-27T04:33:18.133Z,17.1093
2023-04-27T04:34:22.033Z,16.8221
2023-04-27T04:35:25.924Z,16.8189
2023-04-27T04:36:29.834Z,16.9447
2023-04-27T04:37:33.719Z,17.0918
2023-04-27T04:38:37.614Z,17.2366
2023-04-27T04:39:41.544Z,17.1665
2023-04-27T04:40:46.198Z,16.8648
2023-04-27T04:41:50.071Z,16.8185
2023-04-27T04:42:53.950Z,16.9431
2023-04-27T04:43:58.105Z,17.0964
2023-04-27T04:45:02.009Z,17.2506
2023-04-27T04:46:06.020Z,17.2391
2023-04-27T04:47:10.154Z,16.8957
2023-04-27T04:48:14.037Z,16.7709
2023-04-27T04:49:17.957Z,16.8866
2023-04-27T04:50:21.849Z,17.0386
2023-04-27T04:51:25.779Z,17.1897
2023-04-27T04:52:29.699Z,17.2604
2023-04-27T04:53:33.597Z,16.9887
2023-04-27T04:54:37.473Z,16.8178
2023-04-27T04:55:41.379Z,16.8757
2023-04-27T04:56:45.272Z,17.0019
2023-04-27T04:57:49.202Z,17.1320
2023-04-27T04:58:53.070Z,17.2337
2023-04-27T04:59:56.968Z,17.0114
2023-04-27T05:01:00.851Z,16.8169
2023-04-27T05:02:05.189Z,16.8808
2023-04-27T05:03:09.138Z,17.0197
2023-04-27T05:04:13.291Z,17.1650
2023-04-27T05:05:17.367Z,17.2923
2023-04-27T05:06:21.275Z,17.0637
2023-04-27T05:07:25.243Z,16.8365
2023-04-27T05:08:29.111Z,16.8394
2023-04-27T05:09:33.053Z,16.9418
2023-04-27T05:10:36.941Z,17.0644
2023-04-27T05:11:40.832Z,17.1986
2023-04-27T05:12:44.739Z,17.0384
2023-04-27T05:13:48.731Z,16.8946
2023-04-27T05:14:52.598Z,16.9611
2023-04-27T05:15:56.592Z,17.0902
2023-04-27T05:17:00.463Z,17.2297
2023-04-27T05:18:04.411Z,17.3446
2023-04-27T05:19:08.320Z,17.1234
2023-04-27T05:20:12.199Z,16.7907
2023-04-27T05:21:16.136Z,16.7780
2023-04-27T05:22:20.017Z,16.8815
2023-04-27T05:23:24.059Z,17.0125
2023-04-27T05:24:27.970Z,17.1665
2023-04-27T05:25:31.844Z,17.1227
2023-04-27T05:26:35.744Z,16.9489
2023-04-27T05:27:39.691Z,16.9830
2023-04-27T05:28:43.841Z,17.0880
2023-04-27T05:29:47.749Z,17.2204
2023-04-27T05:30:51.633Z,17.3557
2023-04-27T05:31:55.566Z,17.1952
2023-04-27T05:32:59.506Z,16.8138
2023-04-27T05:34:03.446Z,16.7262
2023-04-27T05:35:07.330Z,16.8670
2023-04-27T05:36:11.206Z,17.0190
2023-04-27T05:37:15.129Z,17.1665
2023-04-27T05:38:19.100Z,17.2130
2023-04-27T05:39:23.024Z,16.9424
2023-04-27T05:40:26.871Z,16.8465
2023-04-27T05:41:31.014Z,16.9583
2023-04-27T05:42:34.907Z,17.0924
2023-04-27T05:43:38.816Z,17.6134
2023-04-27T05:44:42.704Z,18.2035
2023-04-27T05:45:46.650Z,18.6955
2023-04-27T05:46:50.557Z,18.3479
2023-04-27T05:47:54.477Z,17.4654
2023-04-27T05:48:58.392Z,16.8054
2023-04-27T05:50:02.322Z,16.3574
2023-04-27T05:51:06.188Z,16.2938
2023-04-27T05:52:10.114Z,16.4493
2023-04-27T05:53:13.992Z,16.6823
2023-04-27T05:54:17.977Z,16.8955
2023-04-27T05:55:21.829Z,16.9157
2023-04-27T05:56:25.753Z,16.8483
2023-04-27T05:57:29.670Z,16.9064
2023-04-27T05:58:33.613Z,17.0283
2023-04-27T05:59:37.505Z,17.1505
2023-04-27T06:00:41.398Z,17.2569
2023-04-27T06:01:45.301Z,17.0364
2023-04-27T06:02:49.383Z,16.7326
2023-04-27T06:03:53.504Z,16.7722
2023-04-27T06:04:57.506Z,16.9086
2023-04-27T06:06:01.399Z,17.0539
2023-04-27T06:07:05.313Z,17.1748
2023-04-27T06:08:09.211Z,17.1009
2023-04-27T06:09:13.243Z,16.8014
2023-04-27T06:10:17.275Z,16.7489
2023-04-27T06:11:21.421Z,16.8695
2023-04-27T06:12:25.335Z,16.9910
2023-04-27T06:13:29.253Z,17.1305
2023-04-27T06:14:33.207Z,17.1565
2023-04-27T06:15:37.110Z,16.8777
2023-04-27T06:16:41.017Z,16.7942
2023-04-27T06:17:44.924Z,16.8735
2023-04-27T06:18:48.825Z,16.9910
2023-04-27T06:19:52.726Z,17.1145
2023-04-27T06:20:56.625Z,17.1576
2023-04-27T06:22:00.538Z,16.8866
2023-04-27T06:23:04.410Z,16.7902
2023-04-27T06:24:08.283Z,16.8902
2023-04-27T06:25:12.183Z,17.0125
2023-04-27T06:26:16.062Z,17.1425
2023-04-27T06:27:20.000Z,17.2124
2023-04-27T06:28:23.889Z,16.9304
2023-04-27T06:29:27.764Z,16.7003
2023-04-27T06:30:31.642Z,16.7720
2023-04-27T06:31:35.601Z,16.9082
2023-04-27T06:32:39.484Z,17.0426
2023-04-27T06:33:43.380Z,17.1603
2023-04-27T06:34:47.430Z,17.0206
2023-04-27T06:35:51.319Z,16.7800
2023-04-27T06:36:55.217Z,16.8085
2023-04-27T06:37:59.185Z,16.9413
2023-04-27T06:39:03.142Z,17.0657
2023-04-27T06:40:07.101Z,17.2059
2023-04-27T06:41:10.980Z,17.1078
2023-04-27T06:42:14.878Z,16.7796
2023-04-27T06:43:18.779Z,16.7168
2023-04-27T06:44:22.938Z,16.8650
2023-04-27T06:45:26.868Z,17.0154
2023-04-27T06:46:30.789Z,17.1521
2023-04-27T06:47:34.788Z,17.1952
2023-04-27T06:48:38.664Z,16.8724
2023-04-27T06:49:42.563Z,16.6979
2023-04-27T06:50:46.482Z,16.7898
2023-04-27T06:51:50.394Z,16.9280
2023-04-27T06:52:54.317Z,17.0615
2023-04-27T06:53:58.199Z,17.1610
2023-04-27T06:55:02.100Z,16.9747
2023-04-27T06:56:06.012Z,16.8214
2023-04-27T06:57:09.932Z,16.8650
2023-04-27T06:58:13.911Z,16.9809
2023-04-27T06:59:17.784Z,17.1016
2023-04-27T07:00:21.702Z,17.2093
2023-04-27T07:01:25.648Z,17.0145
2023-04-27T07:02:29.551Z,16.7424
2023-04-27T07:03:33.599Z,16.7647
2023-04-27T07:04:37.575Z,16.8704
2023-04-27T07:05:41.515Z,17.0005
2023-04-27T07:06:45.442Z,17.1354
2023-04-27T07:07:49.343Z,17.0446
2023-04-27T07:08:53.233Z,16.8023
2023-04-27T07:09:57.319Z,16.8548
2023-04-27T07:11:01.205Z,16.9921
2023-04-27T07:12:05.094Z,17.1116
2023-04-27T07:13:09.579Z,17.2529
2023-04-27T07:14:13.893Z,17.1750
2023-04-27T07:15:17.811Z,16.8143
2023-04-27T07:16:21.784Z,16.7046
2023-04-27T07:17:25.665Z,16.8107
2023-04-27T07:18:29.506Z,16.9496
2023-04-27T07:19:33.406Z,17.0929
2023-04-27T07:20:37.285Z,17.1599
2023-04-27T07:21:41.302Z,16.8797
2023-04-27T07:22:45.192Z,16.7440
2023-04-27T07:23:49.092Z,16.8470
2023-04-27T07:24:53.021Z,16.9872
2023-04-27T07:25:56.914Z,17.1247
2023-04-27T07:27:00.826Z,17.2275
2023-04-27T07:28:04.713Z,16.9936
2023-04-27T07:29:22.975Z,16.6906
2023-04-27T07:30:13.157Z,16.7434
2023-04-27T07:31:17.121Z,16.8966
2023-04-27T07:32:21.043Z,17.0315
2023-04-27T07:33:24.947Z,17.1772
2023-04-27T07:34:32.897Z,17.1033
2023-04-27T07:35:33.619Z,16.7681
2023-04-27T07:36:37.521Z,16.7457
2023-04-27T07:37:41.437Z,16.8750
2023-04-27T07:38:45.352Z,17.0190
2023-04-27T07:39:49.293Z,17.1438
2023-04-27T07:40:53.197Z,17.1763
2023-04-27T07:41:57.147Z,16.8775
2023-04-27T07:43:01.032Z,16.7598
2023-04-27T07:44:04.933Z,16.8563
2023-04-27T07:45:08.823Z,16.9927
2023-04-27T07:46:12.748Z,17.1265
2023-04-27T07:47:16.716Z,17.2095
2023-04-27T07:48:20.680Z,16.9491
2023-04-27T07:49:24.555Z,16.7598
2023-04-27T07:50:28.454Z,16.8341
2023-04-27T07:51:32.337Z,16.9536
2023-04-27T07:52:36.222Z,17.0838
2023-04-27T07:53:40.104Z,17.2097
2023-04-27T07:54:44.053Z,17.0163
2023-04-27T07:55:47.955Z,16.7422
2023-04-27T07:56:51.865Z,16.7693
2023-04-27T07:57:55.761Z,16.8935
2023-04-27T07:58:59.644Z,17.0208
2023-04-27T08:00:03.529Z,17.1518
2023-04-27T08:01:07.532Z,17.0691
2023-04-27T08:02:19.534Z,16.7751
2023-04-27T08:03:16.053Z,16.7929
2023-04-27T08:04:20.628Z,16.9046
2023-04-27T08:05:24.796Z,17.0268
2023-04-27T08:06:29.699Z,17.1590
2023-04-27T08:07:35.507Z,17.1367
2023-04-27T08:08:36.839Z,16.8368
2023-04-27T08:09:40.736Z,16.7787
2023-04-27T08:10:44.644Z,16.8728
2023-04-27T08:11:48.552Z,16.9894
2023-04-27T08:12:52.458Z,17.1258
2023-04-27T08:13:56.407Z,17.1496
2023-04-27T08:15:00.311Z,16.8643
2023-04-27T08:16:04.219Z,16.8156
2023-04-27T08:17:08.146Z,16.9142
2023-04-27T08:18:12.116Z,17.0281
2023-04-27T08:19:16.384Z,17.1670
2023-04-27T08:20:20.332Z,17.1966
2023-04-27T08:21:24.201Z,16.8839
2023-04-27T08:22:28.087Z,16.7511
2023-04-27T08:23:31.999Z,16.8472
2023-04-27T08:24:35.975Z,16.9647
2023-04-27T08:25:39.875Z,17.0933
2023-04-27T08:26:43.813Z,17.1908
2023-04-27T08:27:47.705Z,16.9616
2023-04-27T08:28:51.614Z,16.7366
2023-04-27T08:29:55.542Z,16.7942
2023-04-27T08:30:59.480Z,16.9267
2023-04-27T08:32:03.394Z,17.0633
2023-04-27T08:33:07.355Z,17.1928
2023-04-27T08:34:11.564Z,17.0306
2023-04-27T08:35:15.485Z,16.7344
2023-04-27T08:36:19.358Z,16.7415
2023-04-27T08:37:23.283Z,16.8935
2023-04-27T08:38:27.228Z,17.0348
2023-04-27T08:39:31.149Z,17.1832
2023-04-27T08:40:35.059Z,17.1423
2023-04-27T08:41:38.974Z,16.7958
2023-04-27T08:42:42.871Z,16.6783
2023-04-27T08:43:46.769Z,16.7985
2023-04-27T08:44:50.696Z,16.9527
2023-04-27T08:45:54.597Z,17.0815
2023-04-27T08:46:58.470Z,17.1590
2023-04-27T08:48:02.409Z,16.9120
2023-04-27T08:49:06.339Z,16.7891
2023-04-27T08:50:10.220Z,16.8695
2023-04-27T08:51:14.164Z,16.9756
2023-04-27T08:52:18.055Z,17.1091
2023-04-27T08:53:21.957Z,17.2046
2023-04-27T08:54:25.866Z,16.9418
2023-04-27T08:55:29.789Z,16.7758
2023-04-27T08:56:33.707Z,16.8577
2023-04-27T08:57:37.649Z,16.9763
2023-04-27T08:58:41.548Z,17.1053
2023-04-27T08:59:45.564Z,17.2061
2023-04-27T09:00:50.780Z,16.9787
2023-04-27T09:01:51.145Z,16.7402
2023-04-27T09:02:55.307Z,16.7833
2023-04-27T09:03:59.772Z,16.8962
2023-04-27T09:05:04.170Z,17.0121
2023-04-27T09:06:08.227Z,17.1543
2023-04-27T09:07:08.420Z,17.0238
2023-04-27T09:08:12.338Z,16.7571
2023-04-27T09:09:16.385Z,16.7753
2023-04-27T09:10:20.309Z,16.8910
2023-04-27T09:11:24.189Z,17.0228
2023-04-27T09:12:28.086Z,17.1688
2023-04-27T09:13:31.972Z,17.1180
2023-04-27T09:14:35.867Z,16.8294
2023-04-27T09:15:39.767Z,16.7918
2023-04-27T09:16:44.020Z,16.8906
2023-04-27T09:17:48.032Z,17.0214
2023-04-27T09:18:51.967Z,17.1543
2023-04-27T09:19:55.852Z,17.1412
2023-04-27T09:20:59.762Z,16.8557
2023-04-27T09:22:03.679Z,16.7851
2023-04-27T09:23:07.619Z,16.8457
2023-04-27T09:24:11.506Z,16.9558
2023-04-27T09:25:15.403Z,17.0909
2023-04-27T09:26:19.286Z,17.1129
2023-04-27T09:27:23.479Z,16.8343
2023-04-27T09:28:27.405Z,16.7655
2023-04-27T09:29:31.314Z,16.8719
2023-04-27T09:30:35.202Z,17.0128
2023-04-27T09:31:39.202Z,17.1654
2023-04-27T09:32:43.120Z,17.1961
2023-04-27T09:33:47.036Z,16.8715
2023-04-27T09:34:51.183Z,16.7150
2023-04-27T09:35:55.064Z,16.7998
2023-04-27T09:36:58.951Z,16.9229
2023-04-27T09:38:02.845Z,17.0508
2023-04-27T09:39:06.761Z,17.1576
2023-04-27T09:40:10.645Z,16.9698
2023-04-27T09:41:14.566Z,16.8663
2023-04-27T09:42:18.480Z,16.9249
2023-04-27T09:43:22.351Z,17.0379
2023-04-27T09:44:26.249Z,17.1783
2023-04-27T09:45:30.194Z,17.2620
2023-04-27T09:46:34.073Z,16.9923
2023-04-27T09:47:38.060Z,16.7133
2023-04-27T09:48:41.975Z,16.7504
2023-04-27T09:49:45.856Z,16.8839
2023-04-27T09:50:49.769Z,17.0141
2023-04-27T09:51:53.683Z,17.1474
2023-04-27T09:52:57.592Z,17.0410
2023-04-27T09:54:01.513Z,16.8058
2023-04-27T09:55:05.413Z,16.8238
2023-04-27T09:56:09.325Z,16.9424
2023-04-27T09:57:13.219Z,17.0702
2023-04-27T09:58:17.118Z,17.2173
2023-04-27T09:59:21.049Z,17.1211
2023-04-27T10:00:25.221Z,16.7667
2023-04-27T10:01:29.176Z,16.6872
2023-04-27T10:02:35.116Z,16.8310
2023-04-27T10:03:37.654Z,17.0238
2023-04-27T10:04:41.713Z,17.1583
2023-04-27T10:05:45.689Z,17.2162
2023-04-27T10:06:49.581Z,16.9055
2023-04-27T10:07:53.486Z,16.6819
2023-04-27T10:08:57.537Z,16.7531
2023-04-27T10:10:01.434Z,16.8988
2023-04-27T10:11:05.362Z,17.0441
2023-04-27T10:12:09.265Z,17.1503
2023-04-27T10:13:13.160Z,16.9967
2023-04-27T10:14:17.071Z,16.7428
2023-04-27T10:15:20.988Z,16.7624
2023-04-27T10:16:25.016Z,16.8886
2023-04-27T10:17:25.297Z,17.0191
2023-04-27T10:18:29.193Z,17.1583
2023-04-27T10:19:33.085Z,17.0833
2023-04-27T10:20:37.006Z,16.8034
2023-04-27T10:21:40.912Z,16.7889
2023-04-27T10:22:44.814Z,16.8962
2023-04-27T10:23:48.745Z,16.9972
2023-04-27T10:24:52.656Z,17.1414
2023-04-27T10:25:56.540Z,17.1182
2023-04-27T10:27:00.707Z,16.8194
2023-04-27T10:28:04.617Z,16.7509
2023-04-27T10:29:08.773Z,16.8512
2023-04-27T10:30:12.703Z,16.9663
2023-04-27T10:31:16.654Z,17.0915
2023-04-27T10:32:20.543Z,17.1176
2023-04-27T10:33:24.429Z,16.8821
2023-04-27T10:34:28.336Z,16.8225
2023-04-27T10:35:32.257Z,16.8910
2023-04-27T10:36:36.188Z,17.0048
2023-04-27T10:37:40.090Z,17.1436
2023-04-27T10:38:43.999Z,17.1605
2023-04-27T10:39:49.588Z,16.8574
2023-04-27T10:40:49.014Z,16.7657
2023-04-27T10:41:52.913Z,16.8621
2023-04-27T10:42:56.862Z,16.9807
2023-04-27T10:44:00.758Z,17.1154
2023-04-27T10:45:04.648Z,17.1710
2023-04-27T10:46:08.596Z,16.9068
2023-04-27T10:47:12.747Z,16.7627
2023-04-27T10:48:16.632Z,16.8632
2023-04-27T10:49:20.572Z,16.9959
2023-04-27T10:50:24.436Z,17.1360
2023-04-27T10:51:28.348Z,17.2315
2023-04-27T10:52:32.271Z,16.9867
2023-04-27T10:53:36.179Z,16.7742
2023-04-27T10:54:40.119Z,16.8267
2023-04-27T10:55:44.027Z,16.9400
2023-04-27T10:56:47.938Z,17.0662
2023-04-27T10:57:51.835Z,17.1881
2023-04-27T10:58:55.722Z,17.0030
2023-04-27T10:59:59.612Z,16.7822
2023-04-27T11:01:03.565Z,16.8156
2023-04-27T11:02:07.482Z,16.9282
2023-04-27T11:03:11.619Z,17.0530
2023-04-27T11:04:15.822Z,17.1765
2023-04-27T11:05:19.961Z,17.0401
2023-04-27T11:06:23.841Z,16.7998
2023-04-27T11:07:27.877Z,16.8307
2023-04-27T11:08:31.798Z,16.9402
2023-04-27T11:09:35.748Z,17.0533
2023-04-27T11:10:39.640Z,17.1888
2023-04-27T11:11:43.578Z,17.0871
2023-04-27T11:12:47.472Z,16.7918
2023-04-27T11:13:51.413Z,16.7578
2023-04-27T11:14:55.313Z,16.8975
2023-04-27T11:15:59.258Z,17.0401
2023-04-27T11:17:03.109Z,17.1817
2023-04-27T11:18:07.049Z,17.1957
2023-04-27T11:19:10.989Z,16.8735
2023-04-27T11:20:14.917Z,16.7201
2023-04-27T11:21:19.081Z,16.7822
2023-04-27T11:22:23.005Z,16.9173
2023-04-27T11:23:26.867Z,17.0508
2023-04-27T11:24:30.776Z,17.1294
2023-04-27T11:25:34.730Z,16.9013
2023-04-27T11:26:38.611Z,16.7914
2023-04-27T11:27:42.512Z,16.8915
2023-04-27T11:28:46.746Z,17.0141
2023-04-27T11:29:50.645Z,17.1407
2023-04-27T11:30:54.573Z,17.2199
2023-04-27T11:31:58.776Z,16.9489
2023-04-27T11:33:02.760Z,16.7702
2023-04-27T11:34:07.816Z,16.8463
2023-04-27T11:35:11.794Z,16.9749
2023-04-27T11:36:15.689Z,17.1076
2023-04-27T11:37:19.572Z,17.2193
2023-04-27T11:38:23.569Z,17.0152
2023-04-27T11:39:27.492Z,16.7015
2023-04-27T11:40:31.393Z,16.7253
2023-04-27T11:41:35.325Z,16.8523
2023-04-27T11:42:39.219Z,17.0036
2023-04-27T11:43:43.121Z,17.1383
2023-04-27T11:44:47.074Z,17.0891
2023-04-27T11:45:50.937Z,16.7907
2023-04-27T11:46:54.917Z,16.7555
2023-04-27T11:47:58.847Z,16.8986
2023-04-27T11:49:02.986Z,17.0348
2023-04-27T11:50:06.879Z,17.1725
2023-04-27T11:51:10.816Z,17.2019
2023-04-27T11:52:14.715Z,16.8866
2023-04-27T11:53:18.941Z,16.6743
2023-04-27T11:54:22.991Z,16.7664
2023-04-27T11:55:26.914Z,16.9304
2023-04-27T11:56:30.823Z,17.0700
2023-04-27T11:57:34.756Z,17.1923
2023-04-27T11:58:38.681Z,16.9812
2023-04-27T11:59:42.559Z,16.7368
2023-04-27T12:00:46.462Z,16.7760
2023-04-27T12:01:50.607Z,16.8859
2023-04-27T12:02:54.665Z,17.0110
2023-04-27T12:04:02.145Z,17.1490
2023-04-27T12:05:01.183Z,17.0422
2023-04-27T12:06:21.504Z,16.7747
2023-04-27T12:07:09.755Z,16.7854
2023-04-27T12:08:13.664Z,16.9111
2023-04-27T12:09:17.577Z,17.0502
2023-04-27T12:10:21.514Z,17.2039
2023-04-27T12:11:25.484Z,17.1785
2023-04-27T12:12:29.399Z,16.8552
2023-04-27T12:13:33.318Z,16.7642
2023-04-27T12:14:37.221Z,16.8405
2023-04-27T12:15:41.134Z,16.9589
2023-04-27T12:16:45.090Z,17.0915
2023-04-27T12:17:49.050Z,17.1458
2023-04-27T12:18:52.971Z,16.8675
2023-04-27T12:19:56.904Z,16.7286
2023-04-27T12:21:02.983Z,16.8045
2023-04-27T12:22:01.888Z,16.9213
2023-04-27T12:23:05.842Z,17.0573
2023-04-27T12:24:09.729Z,17.1792
2023-04-27T12:25:13.613Z,16.9420
2023-04-27T12:26:17.522Z,16.7146
2023-04-27T12:27:21.411Z,16.7860
2023-04-27T12:28:25.326Z,16.9278
2023-04-27T12:29:29.276Z,17.0760
2023-04-27T12:30:33.154Z,17.2126
2023-04-27T12:31:37.071Z,17.0782
2023-04-27T12:32:40.970Z,16.7584
2023-04-27T12:33:45.119Z,16.7282
2023-04-27T12:34:49.020Z,16.8690
2023-04-27T12:35:53.195Z,17.0112
2023-04-27T12:36:57.074Z,17.1534
2023-04-27T12:38:00.959Z,17.1623
2023-04-27T12:39:04.876Z,16.8321
2023-04-27T12:40:08.754Z,16.7019
2023-04-27T12:41:12.636Z,16.8132
2023-04-27T12:42:16.568Z,16.9620
2023-04-27T12:43:20.429Z,17.0960
2023-04-27T12:44:24.315Z,17.1843
2023-04-27T12:45:28.199Z,16.9387
2023-04-27T12:46:32.137Z,16.7159
2023-04-27T12:48:37.559Z,16.8932
2023-04-27T12:49:41.420Z,17.0281
2023-04-27T12:50:45.315Z,17.1683
2023-04-27T12:51:49.207Z,17.0290
2023-04-27T12:52:53.100Z,16.7756
2023-04-27T12:53:58.725Z,16.8052